createdAt,value
2018-09-08T00:01:07.981Z,99.90
2018-09-08T00:03:49.700Z,99.90
2018-09-08T00:06:33.421Z,99.90
2018-09-08T00:09:15.285Z,99.90
2018-09-08T00:11:57.107Z,99.90
2018-09-08T00:14:37.640Z,99.90
2018-09-08T00:17:24.522Z,99.90
2018-09-08T00:20:10.422Z,99.90
2018-09-08T00:22:56.497Z,99.90
2018-09-08T00:25:43.292Z,99.90
2018-09-08T00:28:43.193Z,99.90
2018-09-08T00:31:24.745Z,99.90
2018-09-08T00:34:06.333Z,99.90
2018-09-08T00:36:48.109Z,99.90
2018-09-08T00:39:30.129Z,99.90
2018-09-08T00:42:12.728Z,99.90
2018-09-08T00:44:56.038Z,99.90
2018-09-08T00:47:37.900Z,99.90
2018-09-08T00:50:19.882Z,99.90
2018-09-08T00:53:01.420Z,99.90
2018-09-08T00:55:43.151Z,99.90
2018-09-08T00:58:25.168Z,99.90
2018-09-08T01:01:06.489Z,99.90
2018-09-08T01:03:47.269Z,99.90
2018-09-08T01:06:29.338Z,99.90
2018-09-08T01:09:10.638Z,99.90
2018-09-08T01:11:52.330Z,99.90
2018-09-08T01:14:33.318Z,99.90
2018-09-08T01:17:15.105Z,99.90
2018-09-08T01:19:56.808Z,99.90
2018-09-08T01:22:37.669Z,99.90
2018-09-08T01:25:18.696Z,99.90
2018-09-08T01:28:00.517Z,99.90
2018-09-08T01:30:41.985Z,99.90
2018-09-08T01:33:23.662Z,99.90
2018-09-08T01:36:05.960Z,99.90
2018-09-08T01:38:47.243Z,99.90
2018-09-08T01:41:29.185Z,99.90
2018-09-08T01:44:10.983Z,99.90
2018-09-08T01:46:59.697Z,99.90
2018-09-08T01:49:41.652Z,99.90
2018-09-08T01:52:22.963Z,99.90
2018-09-08T01:55:06.045Z,99.90
2018-09-08T01:57:48.111Z,99.90
2018-09-08T02:00:29.928Z,99.90
2018-09-08T02:03:11.687Z,99.90
2018-09-08T02:05:53.509Z,99.90
2018-09-08T02:08:35.290Z,99.90
2018-09-08T02:11:17.016Z,99.90
2018-09-08T02:14:11.010Z,99.90
2018-09-08T02:16:52.860Z,99.90
2018-09-08T02:19:34.703Z,99.90
2018-09-08T02:22:17.386Z,99.90
2018-09-08T02:25:07.347Z,99.90
2018-09-08T02:27:49.050Z,99.90
2018-09-08T02:30:29.954Z,99.90
2018-09-08T02:33:10.933Z,99.90
2018-09-08T02:35:52.998Z,99.90
2018-09-08T02:38:34.202Z,99.90
2018-09-08T02:41:15.401Z,99.90
2018-09-08T02:43:56.555Z,99.90
2018-09-08T02:46:37.460Z,99.90
2018-09-08T02:49:19.404Z,99.90
2018-09-08T02:52:01.059Z,99.90
2018-09-08T02:54:42.482Z,99.90
2018-09-08T02:57:24.309Z,99.90
2018-09-08T03:00:05.774Z,99.90
2018-09-08T03:02:48.439Z,99.90
2018-09-08T03:05:30.232Z,99.90
2018-09-08T03:08:12.022Z,99.90
2018-09-08T03:10:53.245Z,99.90
2018-09-08T03:13:34.964Z,99.90
2018-09-08T03:16:16.510Z,99.90
2018-09-08T03:18:58.245Z,99.90
2018-09-08T03:21:39.868Z,99.90
2018-09-08T03:24:21.572Z,99.90
2018-09-08T03:27:04.527Z,99.90
2018-09-08T03:29:46.212Z,99.90
2018-09-08T03:32:27.331Z,99.90
2018-09-08T03:35:08.974Z,99.90
2018-09-08T03:37:58.882Z,99.90
2018-09-08T03:40:40.646Z,99.90
2018-09-08T03:43:22.391Z,99.90
2018-09-08T03:46:04.264Z,99.90
2018-09-08T03:48:46.171Z,99.90
2018-09-08T03:54:35.068Z,99.90
2018-09-08T03:57:16.104Z,99.90
2018-09-08T03:59:56.947Z,99.90
2018-09-08T04:02:40.080Z,99.90
2018-09-08T04:05:22.603Z,99.90
2018-09-08T04:08:06.227Z,99.90
2018-09-08T04:10:48.068Z,99.90
2018-09-08T04:13:30.813Z,99.90
2018-09-08T04:16:13.593Z,99.90
2018-09-08T04:18:54.527Z,99.90
2018-09-08T04:21:36.452Z,99.90
2018-09-08T04:24:18.563Z,99.90
2018-09-08T04:26:59.931Z,99.90
2018-09-08T04:29:41.274Z,99.90
2018-09-08T04:32:22.560Z,99.90
2018-09-08T04:35:04.185Z,99.90
2018-09-08T04:37:46.295Z,99.90
2018-09-08T04:40:27.493Z,99.90
2018-09-08T04:43:09.279Z,99.90
2018-09-08T04:45:50.914Z,99.90
2018-09-08T04:48:31.993Z,99.90
2018-09-08T04:51:13.713Z,99.90
2018-09-08T04:53:55.448Z,99.90
2018-09-08T04:56:37.176Z,99.90
2018-09-08T04:59:18.976Z,99.90
2018-09-08T05:02:00.583Z,99.90
2018-09-08T05:04:41.799Z,99.90
2018-09-08T05:07:23.413Z,99.90
2018-09-08T05:10:05.145Z,99.90
2018-09-08T05:12:46.609Z,99.90
2018-09-08T05:15:28.491Z,99.90
2018-09-08T05:18:10.400Z,99.90
2018-09-08T05:20:51.868Z,99.90
2018-09-08T05:23:33.463Z,99.90
2018-09-08T05:26:15.221Z,99.90
2018-09-08T05:28:56.739Z,99.90
2018-09-08T05:31:38.693Z,99.90
2018-09-08T05:34:20.491Z,99.90
2018-09-08T05:37:02.030Z,99.90
2018-09-08T05:39:43.103Z,99.90
2018-09-08T05:42:24.610Z,99.90
2018-09-08T05:45:05.586Z,99.90
2018-09-08T05:47:47.413Z,99.90
2018-09-08T05:50:28.287Z,99.90
2018-09-08T05:53:09.221Z,99.90
2018-09-08T05:55:50.775Z,99.90
2018-09-08T05:58:31.737Z,99.90
2018-09-08T06:01:14.488Z,99.90
2018-09-08T06:03:55.371Z,99.90
2018-09-08T06:06:37.024Z,99.90
2018-09-08T06:09:18.791Z,99.90
2018-09-08T06:12:00.922Z,99.90
2018-09-08T06:14:42.161Z,99.90
2018-09-08T06:17:23.888Z,99.90
2018-09-08T06:20:05.596Z,99.90
2018-09-08T06:22:47.283Z,99.90
2018-09-08T06:25:29.078Z,99.90
2018-09-08T06:28:10.899Z,99.90
2018-09-08T06:30:52.731Z,99.90
2018-09-08T06:33:34.470Z,99.90
2018-09-08T06:36:16.180Z,99.90
2018-09-08T06:38:58.042Z,99.90
2018-09-08T06:41:38.948Z,99.90
2018-09-08T06:44:19.846Z,99.90
2018-09-08T06:47:01.624Z,99.90
2018-09-08T06:49:43.377Z,99.90
2018-09-08T06:52:24.959Z,99.90
2018-09-08T06:55:05.932Z,99.90
2018-09-08T06:57:46.984Z,99.90
2018-09-08T07:00:28.434Z,99.90
2018-09-08T07:03:09.296Z,99.90
2018-09-08T07:05:50.171Z,99.90
2018-09-08T07:08:32.069Z,99.90
2018-09-08T07:11:13.530Z,99.90
2018-09-08T07:13:54.884Z,99.90
2018-09-08T07:16:36.227Z,99.90
2018-09-08T07:19:17.962Z,99.90
2018-09-08T07:21:59.551Z,99.90
2018-09-08T07:24:40.253Z,99.90
2018-09-08T07:27:21.576Z,99.90
2018-09-08T07:30:04.104Z,99.90
2018-09-08T07:32:45.785Z,99.90
2018-09-08T07:35:27.441Z,99.90
2018-09-08T07:38:09.091Z,99.90
2018-09-08T07:40:50.808Z,99.90
2018-09-08T07:43:33.361Z,99.90
2018-09-08T07:46:14.324Z,99.90
2018-09-08T07:48:56.059Z,99.90
2018-09-08T07:51:37.985Z,99.90
2018-09-08T07:54:20.427Z,99.90
2018-09-08T07:57:02.276Z,99.90
2018-09-08T07:59:43.872Z,99.90
2018-09-08T08:02:25.645Z,99.90
2018-09-08T08:05:07.371Z,99.90
2018-09-08T08:07:48.194Z,99.90
2018-09-08T08:10:29.140Z,99.90
2018-09-08T08:13:12.130Z,99.90
2018-09-08T08:15:53.694Z,99.90
2018-09-08T08:18:35.380Z,99.90
2018-09-08T08:21:17.178Z,99.90
2018-09-08T08:23:58.726Z,99.90
2018-09-08T08:26:39.847Z,99.90
2018-09-08T08:29:21.550Z,99.90
2018-09-08T08:32:02.263Z,99.80
2018-09-08T08:34:43.967Z,98.50
2018-09-08T08:37:24.890Z,96.00
2018-09-08T08:40:07.197Z,94.30
2018-09-08T08:42:49.573Z,91.60
2018-09-08T08:45:31.475Z,89.70
2018-09-08T08:48:13.119Z,86.20
2018-09-08T08:50:54.853Z,80.40
2018-09-08T08:53:35.800Z,78.20
2018-09-08T08:56:17.720Z,76.10
2018-09-08T08:58:58.428Z,73.70
2018-09-08T09:01:39.531Z,71.60
2018-09-08T09:04:21.197Z,71.50
2018-09-08T09:07:03.264Z,69.20
2018-09-08T09:09:45.001Z,70.20
2018-09-08T09:12:27.126Z,70.90
2018-09-08T09:15:09.074Z,72.00
2018-09-08T09:17:50.581Z,71.30
2018-09-08T09:20:32.206Z,72.10
2018-09-08T09:23:14.349Z,73.60
2018-09-08T09:25:56.740Z,74.10
2018-09-08T09:28:37.711Z,75.40
2018-09-08T09:31:19.331Z,74.90
2018-09-08T09:34:04.955Z,76.50
2018-09-08T09:36:46.798Z,78.40
2018-09-08T09:39:28.421Z,79.30
2018-09-08T09:42:10.227Z,79.50
2018-09-08T09:44:51.777Z,80.80
2018-09-08T09:47:33.506Z,80.70
2018-09-08T09:50:14.640Z,80.90
2018-09-08T09:52:55.511Z,79.10
2018-09-08T09:55:36.350Z,79.30
2018-09-08T09:58:18.083Z,80.10
2018-09-08T10:01:04.775Z,80.60
2018-09-08T10:03:46.414Z,80.00
2018-09-08T10:06:27.178Z,82.20
2018-09-08T10:09:08.364Z,83.00
2018-09-08T10:11:49.765Z,81.20
2018-09-08T10:14:30.576Z,82.10
2018-09-08T10:17:12.226Z,82.30
2018-09-08T10:19:54.138Z,80.60
2018-09-08T10:22:35.831Z,81.40
2018-09-08T10:25:17.716Z,81.60
2018-09-08T10:27:59.222Z,85.00
2018-09-08T10:30:40.130Z,86.50
2018-09-08T10:33:22.811Z,87.70
2018-09-08T10:36:03.749Z,87.30
2018-09-08T10:38:45.535Z,87.20
2018-09-08T10:41:27.036Z,87.70
2018-09-08T10:44:07.986Z,89.60
2018-09-08T10:46:50.126Z,90.40
2018-09-08T10:49:31.841Z,91.00
2018-09-08T10:52:12.579Z,90.80
2018-09-08T10:54:54.214Z,91.20
2018-09-08T10:57:35.100Z,91.20
2018-09-08T11:00:16.839Z,91.90
2018-09-08T11:02:57.871Z,92.10
2018-09-08T11:05:39.609Z,91.50
2018-09-08T11:08:21.333Z,90.20
2018-09-08T11:11:02.872Z,91.00
2018-09-08T11:13:43.800Z,90.90
2018-09-08T11:16:25.413Z,90.40
2018-09-08T11:19:06.175Z,90.80
2018-09-08T11:21:48.735Z,90.90
2018-09-08T11:24:29.568Z,90.80
2018-09-08T11:27:10.449Z,91.60
2018-09-08T11:29:51.976Z,91.40
2018-09-08T11:32:33.945Z,92.30
2018-09-08T11:35:15.497Z,91.60
2018-09-08T11:37:57.507Z,91.80
2018-09-08T11:40:39.141Z,92.50
2018-09-08T11:43:20.955Z,92.20
2018-09-08T11:46:02.705Z,92.20
2018-09-08T11:48:44.102Z,92.30
2018-09-08T11:51:25.337Z,91.20
2018-09-08T11:54:07.072Z,91.40
2018-09-08T11:56:49.560Z,91.50
2018-09-08T11:59:30.589Z,91.60
2018-09-08T12:02:12.447Z,90.90
2018-09-08T12:04:54.497Z,90.60
2018-09-08T12:07:35.959Z,91.00
2018-09-08T12:10:16.914Z,90.30
2018-09-08T12:12:57.915Z,90.60
2018-09-08T12:15:39.368Z,90.80
2018-09-08T12:18:20.337Z,89.40
2018-09-08T12:21:01.279Z,90.30
2018-09-08T12:23:43.074Z,90.40
2018-09-08T12:26:24.749Z,90.00
2018-09-08T12:29:05.624Z,90.10
2018-09-08T12:31:47.173Z,90.40
2018-09-08T12:34:28.412Z,90.00
2018-09-08T12:37:10.175Z,90.70
2018-09-08T12:39:51.893Z,90.50
2018-09-08T12:42:33.735Z,89.70
2018-09-08T12:45:15.547Z,90.40
2018-09-08T12:47:57.488Z,90.20
2018-09-08T12:50:39.333Z,90.70
2018-09-08T12:53:21.250Z,90.50
2018-09-08T12:56:02.987Z,90.70
2018-09-08T12:58:44.762Z,90.60
2018-09-08T13:01:26.414Z,90.80
2018-09-08T13:04:07.319Z,90.90
2018-09-08T13:06:49.150Z,91.60
2018-09-08T13:09:30.070Z,91.70
2018-09-08T13:12:11.095Z,91.80
2018-09-08T13:14:52.708Z,91.60
2018-09-08T13:17:34.340Z,91.40
2018-09-08T13:20:15.162Z,92.10
2018-09-08T13:22:57.066Z,92.30
2018-09-08T13:25:39.169Z,91.60
2018-09-08T13:28:20.698Z,92.10
2018-09-08T13:31:02.317Z,92.50
2018-09-08T13:33:44.084Z,92.00
2018-09-08T13:36:25.942Z,92.50
2018-09-08T13:39:08.068Z,92.10
2018-09-08T13:41:49.278Z,92.70
2018-09-08T13:44:31.142Z,92.40
2018-09-08T13:47:13.129Z,92.50
2018-09-08T13:49:54.465Z,92.20
2018-09-08T13:52:36.244Z,92.20
2018-09-08T13:55:17.985Z,92.90
2018-09-08T13:57:59.893Z,92.60
2018-09-08T14:00:42.161Z,93.00
2018-09-08T14:03:24.003Z,93.00
2018-09-08T14:06:05.740Z,91.90
2018-09-08T14:08:47.491Z,91.90
2018-09-08T14:11:29.177Z,91.70
2018-09-08T14:14:09.918Z,91.80
2018-09-08T14:16:50.699Z,92.50
2018-09-08T14:19:31.549Z,92.90
2018-09-08T14:22:13.689Z,91.60
2018-09-08T14:24:55.227Z,91.90
2018-09-08T14:27:36.860Z,91.70
2018-09-08T14:30:18.575Z,91.50
2018-09-08T14:33:00.333Z,91.50
2018-09-08T14:35:41.453Z,91.60
2018-09-08T14:38:22.403Z,91.60
2018-09-08T14:41:03.888Z,92.00
2018-09-08T14:43:45.028Z,92.00
2018-09-08T14:46:26.772Z,91.90
2018-09-08T14:49:07.724Z,92.10
2018-09-08T14:51:48.440Z,92.20
2018-09-08T14:54:29.499Z,92.40
2018-09-08T14:57:11.333Z,92.60
2018-09-08T14:59:52.993Z,92.20
2018-09-08T15:02:34.730Z,92.30
2018-09-08T15:05:16.495Z,92.70
2018-09-08T15:07:58.279Z,92.00
2018-09-08T15:10:39.183Z,92.90
2018-09-08T15:13:20.663Z,92.80
2018-09-08T15:16:02.489Z,93.00
2018-09-08T15:18:44.465Z,92.40
2018-09-08T15:21:26.706Z,92.40
2018-09-08T15:24:08.515Z,92.50
2018-09-08T15:26:51.578Z,93.20
2018-09-08T15:29:32.889Z,93.10
2018-09-08T15:32:13.962Z,93.20
2018-09-08T15:34:55.736Z,92.60
2018-09-08T15:37:37.641Z,92.80
2018-09-08T15:40:19.077Z,92.70
2018-09-08T15:43:00.716Z,93.00
2018-09-08T15:45:41.711Z,93.30
2018-09-08T15:48:24.277Z,93.40
2018-09-08T15:51:06.448Z,93.50
2018-09-08T15:53:47.676Z,93.50
2018-09-08T15:56:29.345Z,93.50
2018-09-08T15:59:11.072Z,94.00
2018-09-08T16:01:51.980Z,94.10
2018-09-08T16:04:33.629Z,94.50
2018-09-08T16:07:15.393Z,95.10
2018-09-08T16:09:56.943Z,95.20
2018-09-08T16:12:38.790Z,95.50
2018-09-08T16:15:20.293Z,95.50
2018-09-08T16:18:01.224Z,95.10
2018-09-08T16:20:42.826Z,95.20
2018-09-08T16:23:23.871Z,95.00
2018-09-08T16:26:05.663Z,95.50
2018-09-08T16:28:47.366Z,95.20
2018-09-08T16:31:29.286Z,95.50
2018-09-08T16:34:10.894Z,95.10
2018-09-08T16:36:53.092Z,94.90
2018-09-08T16:39:34.776Z,94.50
2018-09-08T16:42:16.017Z,95.00
2018-09-08T16:44:57.696Z,95.20
2018-09-08T16:47:39.231Z,95.10
2018-09-08T16:50:20.983Z,95.10
2018-09-08T16:53:02.744Z,95.70
2018-09-08T16:55:44.593Z,95.80
2018-09-08T16:58:25.752Z,95.90
2018-09-08T17:01:07.384Z,95.70
2018-09-08T17:03:49.290Z,95.40
2018-09-08T17:06:30.339Z,95.00
2018-09-08T17:09:11.334Z,95.10
2018-09-08T17:11:52.605Z,95.40
2018-09-08T17:14:34.171Z,95.50
2018-09-08T17:17:15.869Z,95.40
2018-09-08T17:19:57.656Z,95.80
2018-09-08T17:22:39.356Z,95.60
2018-09-08T17:25:21.019Z,95.50
2018-09-08T17:28:02.758Z,95.70
2018-09-08T17:30:44.402Z,95.60
2018-09-08T17:33:26.057Z,95.60
2018-09-08T17:36:07.997Z,95.80
2018-09-08T17:38:49.704Z,96.10
2018-09-08T17:41:31.622Z,96.40
2018-09-08T17:44:13.287Z,97.00
2018-09-08T17:46:54.970Z,97.10
2018-09-08T17:49:37.162Z,97.40
2018-09-08T17:52:20.135Z,97.60
2018-09-08T17:55:01.054Z,97.80
2018-09-08T17:57:42.698Z,98.00
2018-09-08T18:00:24.313Z,98.10
2018-09-08T18:03:05.952Z,98.00
2018-09-08T18:05:47.394Z,98.10
2018-09-08T18:08:29.088Z,98.20
2018-09-08T18:11:10.972Z,98.40
2018-09-08T18:13:52.084Z,98.60
2018-09-08T18:16:33.835Z,98.80
2018-09-08T18:19:15.485Z,99.10
2018-09-08T18:21:57.691Z,99.20
2018-09-08T18:24:39.893Z,99.40
2018-09-08T18:27:21.149Z,99.70
2018-09-08T18:30:02.826Z,99.90
2018-09-08T18:32:44.647Z,99.90
2018-09-08T18:35:26.331Z,99.90
2018-09-08T18:38:07.961Z,99.90
2018-09-08T18:40:49.570Z,99.90
2018-09-08T18:43:31.340Z,99.90
2018-09-08T18:46:13.214Z,99.90
2018-09-08T18:48:54.138Z,99.90
2018-09-08T18:51:35.990Z,99.90
2018-09-08T18:54:17.800Z,99.90
2018-09-08T18:56:59.658Z,99.90
2018-09-08T18:59:40.585Z,99.90
2018-09-08T19:02:21.532Z,99.90
2018-09-08T19:05:02.597Z,99.90
2018-09-08T19:07:44.433Z,99.90
2018-09-08T19:10:26.191Z,99.90
2018-09-08T19:13:07.184Z,99.90
2018-09-08T19:15:48.716Z,99.90
2018-09-08T19:18:31.307Z,99.90
2018-09-08T19:21:14.129Z,99.90
2018-09-08T19:24:02.218Z,99.90
2018-09-08T19:26:43.837Z,99.90
2018-09-08T19:29:29.927Z,99.90
2018-09-08T19:32:11.776Z,99.90
2018-09-08T19:34:58.607Z,99.90
2018-09-08T19:37:40.363Z,99.90
2018-09-08T19:40:27.096Z,99.90
2018-09-08T19:43:09.087Z,99.90
2018-09-08T19:45:50.685Z,99.90
2018-09-08T19:48:32.438Z,99.90
2018-09-08T19:51:14.212Z,99.90
2018-09-08T19:53:58.786Z,99.90
2018-09-08T19:56:45.599Z,99.90
2018-09-08T19:59:27.561Z,99.90
2018-09-08T20:02:09.428Z,99.90
2018-09-08T20:04:50.948Z,99.90
2018-09-08T20:07:32.882Z,99.90
2018-09-08T20:10:14.779Z,99.90
2018-09-08T20:12:56.692Z,99.90
2018-09-08T20:15:38.470Z,99.90
2018-09-08T20:18:22.332Z,99.90
2018-09-08T20:21:03.303Z,99.90
2018-09-08T20:23:45.074Z,99.90
2018-09-08T20:26:25.884Z,99.90
2018-09-08T20:29:07.728Z,99.90
2018-09-08T20:31:48.750Z,99.90
2018-09-08T20:34:30.019Z,99.90
2018-09-08T20:37:11.735Z,99.90
2018-09-08T20:39:52.516Z,99.90
2018-09-08T20:42:34.326Z,99.90
2018-09-08T20:45:16.117Z,99.90
2018-09-08T20:47:57.657Z,99.90
2018-09-08T20:50:38.590Z,99.90
2018-09-08T20:53:20.355Z,99.90
2018-09-08T20:56:02.178Z,99.90
2018-09-08T20:58:43.924Z,99.90
2018-09-08T21:01:25.748Z,99.90
2018-09-08T21:04:07.385Z,99.90
2018-09-08T21:06:49.396Z,99.90
2018-09-08T21:09:31.151Z,99.90
2018-09-08T21:12:12.874Z,99.90
2018-09-08T21:14:53.712Z,99.90
2018-09-08T21:17:34.700Z,99.90
2018-09-08T21:20:19.604Z,99.90
2018-09-08T21:23:02.066Z,99.90
2018-09-08T21:25:43.024Z,99.90
2018-09-08T21:28:24.175Z,99.90
2018-09-08T21:31:05.726Z,99.90
2018-09-08T21:33:47.366Z,99.90
2018-09-08T21:36:28.890Z,99.90
2018-09-08T21:39:11.284Z,99.90
2018-09-08T21:41:52.497Z,99.90
2018-09-08T21:44:33.650Z,99.90
2018-09-08T21:47:14.613Z,99.90
2018-09-08T21:49:56.571Z,99.90
2018-09-08T21:52:38.343Z,99.90
2018-09-08T21:55:20.640Z,99.90
2018-09-08T21:58:01.708Z,99.90
2018-09-08T22:00:47.524Z,99.90
2018-09-08T22:03:29.321Z,99.90
2018-09-08T22:06:11.084Z,99.90
2018-09-08T22:08:51.862Z,99.90
2018-09-08T22:11:32.750Z,99.90
2018-09-08T22:14:14.336Z,99.90
2018-09-08T22:16:55.692Z,99.90
2018-09-08T22:19:37.162Z,99.90
2018-09-08T22:22:18.681Z,99.90
2018-09-08T22:25:00.326Z,99.90
2018-09-08T22:27:41.756Z,99.90
2018-09-08T22:30:22.933Z,99.90
2018-09-08T22:33:04.500Z,99.90
2018-09-08T22:35:46.173Z,99.90
2018-09-08T22:38:27.204Z,99.90
2018-09-08T22:41:08.768Z,99.90
2018-09-08T22:43:50.631Z,99.90
2018-09-08T22:46:32.276Z,99.90
2018-09-08T22:49:13.097Z,99.90
2018-09-08T22:51:54.457Z,99.90
2018-09-08T22:54:36.088Z,99.90
2018-09-08T22:57:17.464Z,99.90
2018-09-08T22:59:59.399Z,99.90
2018-09-08T23:02:42.186Z,99.90
2018-09-08T23:05:23.786Z,99.90
2018-09-08T23:08:05.421Z,99.90
2018-09-08T23:10:46.313Z,99.90
2018-09-08T23:13:27.336Z,99.90
2018-09-08T23:16:08.399Z,99.90
2018-09-08T23:18:49.968Z,99.90
2018-09-08T23:21:31.719Z,99.90
2018-09-08T23:24:13.444Z,99.90
2018-09-08T23:26:54.342Z,99.90
2018-09-08T23:29:35.262Z,99.90
2018-09-08T23:32:17.056Z,99.90
2018-09-08T23:34:58.859Z,99.90
2018-09-08T23:37:40.490Z,99.90
2018-09-08T23:40:22.185Z,99.90
2018-09-08T23:43:03.890Z,99.90
2018-09-08T23:45:45.657Z,99.90
2018-09-08T23:48:27.456Z,99.90
2018-09-08T23:51:09.213Z,99.90
2018-09-08T23:53:50.227Z,99.90
2018-09-08T23:56:31.809Z,99.90
2018-09-08T23:59:13.611Z,99.90
